sensor_id;sensor_type;location;lat;lon;timestamp;P1;durP1;ratioP1;P2;durP2;ratioP2
72649;SDS011;61467;50.674;4.618;2023-03-01T00:00:10;15.15;;;7.10;;
72649;SDS011;61467;50.674;4.618;2023-03-01T00:02:38;11.88;;;6.32;;
72649;SDS011;61467;50.674;4.618;2023-03-01T00:05:05;11.13;;;7.00;;
72649;SDS011;61467;50.674;4.618;2023-03-01T00:07:32;13.53;;;7.60;;
72649;SDS011;61467;50.674;4.618;2023-03-01T00:09:59;14.50;;;7.57;;
72649;SDS011;61467;50.674;4.618;2023-03-01T00:12:26;12.38;;;6.95;;
72649;SDS011;61467;50.674;4.618;2023-03-01T00:14:54;13.80;;;7.07;;
72649;SDS011;61467;50.674;4.618;2023-03-01T00:17:21;13.18;;;7.50;;
72649;SDS011;61467;50.674;4.618;2023-03-01T00:19:48;12.77;;;7.27;;
72649;SDS011;61467;50.674;4.618;2023-03-01T00:22:14;12.73;;;7.38;;
72649;SDS011;61467;50.674;4.618;2023-03-01T00:24:41;16.30;;;7.68;;
72649;SDS011;61467;50.674;4.618;2023-03-01T00:27:08;13.18;;;7.38;;
72649;SDS011;61467;50.674;4.618;2023-03-01T00:29:35;11.98;;;6.63;;
72649;SDS011;61467;50.674;4.618;2023-03-01T00:32:03;12.33;;;7.53;;
72649;SDS011;61467;50.674;4.618;2023-03-01T00:34:30;11.23;;;7.10;;
72649;SDS011;61467;50.674;4.618;2023-03-01T00:36:57;13.15;;;7.00;;
72649;SDS011;61467;50.674;4.618;2023-03-01T00:39:30;14.13;;;6.93;;
72649;SDS011;61467;50.674;4.618;2023-03-01T00:41:57;13.32;;;7.03;;
72649;SDS011;61467;50.674;4.618;2023-03-01T00:44:24;12.90;;;7.07;;
72649;SDS011;61467;50.674;4.618;2023-03-01T00:46:50;14.10;;;7.03;;
72649;SDS011;61467;50.674;4.618;2023-03-01T00:49:19;13.20;;;7.82;;
72649;SDS011;61467;50.674;4.618;2023-03-01T00:51:45;12.27;;;7.82;;
72649;SDS011;61467;50.674;4.618;2023-03-01T00:54:12;13.88;;;7.30;;
72649;SDS011;61467;50.674;4.618;2023-03-01T00:56:39;11.73;;;6.50;;
72649;SDS011;61467;50.674;4.618;2023-03-01T00:59:06;13.07;;;7.28;;
72649;SDS011;61467;50.674;4.618;2023-03-01T01:01:33;12.85;;;7.00;;
72649;SDS011;61467;50.674;4.618;2023-03-01T01:04:00;12.90;;;6.95;;
72649;SDS011;61467;50.674;4.618;2023-03-01T01:06:31;11.10;;;7.03;;
72649;SDS011;61467;50.674;4.618;2023-03-01T01:09:00;13.67;;;7.13;;
72649;SDS011;61467;50.674;4.618;2023-03-01T01:11:28;11.90;;;6.60;;
72649;SDS011;61467;50.674;4.618;2023-03-01T01:13:56;13.63;;;7.03;;
72649;SDS011;61467;50.674;4.618;2023-03-01T01:16:24;13.25;;;7.63;;
72649;SDS011;61467;50.674;4.618;2023-03-01T01:18:52;12.43;;;7.60;;
72649;SDS011;61467;50.674;4.618;2023-03-01T01:21:20;11.97;;;7.07;;
72649;SDS011;61467;50.674;4.618;2023-03-01T01:23:49;13.52;;;6.97;;
72649;SDS011;61467;50.674;4.618;2023-03-01T01:26:18;13.07;;;7.15;;
72649;SDS011;61467;50.674;4.618;2023-03-01T01:28:46;12.25;;;7.03;;
72649;SDS011;61467;50.674;4.618;2023-03-01T01:31:13;12.35;;;7.50;;
72649;SDS011;61467;50.674;4.618;2023-03-01T01:33:40;13.67;;;6.90;;
72649;SDS011;61467;50.674;4.618;2023-03-01T01:36:07;14.40;;;6.88;;
72649;SDS011;61467;50.674;4.618;2023-03-01T01:38:35;13.93;;;6.90;;
72649;SDS011;61467;50.674;4.618;2023-03-01T01:41:04;14.80;;;7.72;;
72649;SDS011;61467;50.674;4.618;2023-03-01T01:43:33;13.60;;;7.57;;
72649;SDS011;61467;50.674;4.618;2023-03-01T01:46:01;15.63;;;7.57;;
72649;SDS011;61467;50.674;4.618;2023-03-01T01:48:32;12.45;;;7.25;;
72649;SDS011;61467;50.674;4.618;2023-03-01T01:51:06;13.98;;;7.50;;
72649;SDS011;61467;50.674;4.618;2023-03-01T01:53:36;12.63;;;7.35;;
72649;SDS011;61467;50.674;4.618;2023-03-01T01:56:06;14.13;;;7.45;;
72649;SDS011;61467;50.674;4.618;2023-03-01T01:58:35;13.13;;;7.43;;
72649;SDS011;61467;50.674;4.618;2023-03-01T02:01:03;12.50;;;6.95;;
72649;SDS011;61467;50.674;4.618;2023-03-01T02:03:31;13.50;;;7.10;;
72649;SDS011;61467;50.674;4.618;2023-03-01T02:06:03;12.25;;;7.13;;
72649;SDS011;61467;50.674;4.618;2023-03-01T02:08:33;23.38;;;7.82;;
72649;SDS011;61467;50.674;4.618;2023-03-01T02:11:03;16.50;;;7.67;;
72649;SDS011;61467;50.674;4.618;2023-03-01T02:13:32;13.07;;;7.90;;
72649;SDS011;61467;50.674;4.618;2023-03-01T02:16:02;15.30;;;7.93;;
72649;SDS011;61467;50.674;4.618;2023-03-01T02:18:30;15.75;;;7.55;;
72649;SDS011;61467;50.674;4.618;2023-03-01T02:23:50;13.17;;;7.70;;
72649;SDS011;61467;50.674;4.618;2023-03-01T02:26:19;16.67;;;7.60;;
72649;SDS011;61467;50.674;4.618;2023-03-01T02:28:51;15.55;;;8.20;;
72649;SDS011;61467;50.674;4.618;2023-03-01T02:31:19;13.93;;;7.53;;
72649;SDS011;61467;50.674;4.618;2023-03-01T02:34:11;15.40;;;7.80;;
72649;SDS011;61467;50.674;4.618;2023-03-01T02:36:41;14.50;;;7.47;;
72649;SDS011;61467;50.674;4.618;2023-03-01T02:39:12;14.00;;;7.47;;
72649;SDS011;61467;50.674;4.618;2023-03-01T02:41:43;13.32;;;7.70;;
72649;SDS011;61467;50.674;4.618;2023-03-01T02:44:14;12.32;;;7.80;;
72649;SDS011;61467;50.674;4.618;2023-03-01T02:46:44;17.67;;;8.82;;
72649;SDS011;61467;50.674;4.618;2023-03-01T02:49:18;12.30;;;7.27;;
72649;SDS011;61467;50.674;4.618;2023-03-01T02:51:48;14.63;;;8.23;;
72649;SDS011;61467;50.674;4.618;2023-03-01T02:54:23;14.13;;;8.35;;
72649;SDS011;61467;50.674;4.618;2023-03-01T02:56:55;15.07;;;7.57;;
72649;SDS011;61467;50.674;4.618;2023-03-01T02:59:24;12.98;;;7.70;;
72649;SDS011;61467;50.674;4.618;2023-03-01T03:01:55;14.17;;;7.50;;
72649;SDS011;61467;50.674;4.618;2023-03-01T03:04:22;12.00;;;7.82;;
72649;SDS011;61467;50.674;4.618;2023-03-01T03:06:49;12.82;;;7.82;;
72649;SDS011;61467;50.674;4.618;2023-03-01T03:09:17;14.05;;;7.80;;
72649;SDS011;61467;50.674;4.618;2023-03-01T03:11:44;13.70;;;8.18;;
72649;SDS011;61467;50.674;4.618;2023-03-01T03:14:12;13.40;;;7.83;;
72649;SDS011;61467;50.674;4.618;2023-03-01T03:16:43;14.65;;;7.50;;
72649;SDS011;61467;50.674;4.618;2023-03-01T03:19:11;14.27;;;7.05;;
72649;SDS011;61467;50.674;4.618;2023-03-01T03:21:38;13.32;;;7.65;;
72649;SDS011;61467;50.674;4.618;2023-03-01T03:24:05;13.75;;;7.93;;
72649;SDS011;61467;50.674;4.618;2023-03-01T03:26:32;15.20;;;8.03;;
72649;SDS011;61467;50.674;4.618;2023-03-01T03:28:59;17.70;;;7.57;;
72649;SDS011;61467;50.674;4.618;2023-03-01T03:31:26;13.45;;;8.38;;
72649;SDS011;61467;50.674;4.618;2023-03-01T03:33:55;14.38;;;8.20;;
72649;SDS011;61467;50.674;4.618;2023-03-01T03:36:24;12.70;;;7.20;;
72649;SDS011;61467;50.674;4.618;2023-03-01T03:38:51;17.47;;;8.87;;
72649;SDS011;61467;50.674;4.618;2023-03-01T03:41:17;16.17;;;7.50;;
72649;SDS011;61467;50.674;4.618;2023-03-01T03:43:44;12.90;;;7.20;;
72649;SDS011;61467;50.674;4.618;2023-03-01T03:46:11;14.35;;;7.93;;
72649;SDS011;61467;50.674;4.618;2023-03-01T03:48:39;14.75;;;8.40;;
72649;SDS011;61467;50.674;4.618;2023-03-01T03:51:11;15.40;;;8.00;;
72649;SDS011;61467;50.674;4.618;2023-03-01T03:53:39;15.07;;;8.32;;
72649;SDS011;61467;50.674;4.618;2023-03-01T03:56:06;13.70;;;8.60;;
72649;SDS011;61467;50.674;4.618;2023-03-01T03:58:33;12.93;;;8.13;;
72649;SDS011;61467;50.674;4.618;2023-03-01T04:01:00;15.95;;;7.95;;
72649;SDS011;61467;50.674;4.618;2023-03-01T04:03:27;15.93;;;8.57;;
72649;SDS011;61467;50.674;4.618;2023-03-01T04:05:56;14.77;;;8.30;;
72649;SDS011;61467;50.674;4.618;2023-03-01T04:08:25;13.52;;;8.70;;
72649;SDS011;61467;50.674;4.618;2023-03-01T04:10:56;15.52;;;8.63;;
72649;SDS011;61467;50.674;4.618;2023-03-01T04:13:25;14.63;;;8.30;;
72649;SDS011;61467;50.674;4.618;2023-03-01T04:15:52;15.57;;;7.90;;
72649;SDS011;61467;50.674;4.618;2023-03-01T04:18:20;13.82;;;7.50;;
72649;SDS011;61467;50.674;4.618;2023-03-01T04:20:48;15.52;;;7.85;;
72649;SDS011;61467;50.674;4.618;2023-03-01T04:23:19;12.43;;;7.80;;
72649;SDS011;61467;50.674;4.618;2023-03-01T04:25:49;13.98;;;8.27;;
72649;SDS011;61467;50.674;4.618;2023-03-01T04:28:20;14.27;;;7.83;;
72649;SDS011;61467;50.674;4.618;2023-03-01T04:30:49;13.65;;;8.18;;
72649;SDS011;61467;50.674;4.618;2023-03-01T04:33:16;13.95;;;7.68;;
72649;SDS011;61467;50.674;4.618;2023-03-01T04:35:43;14.20;;;7.68;;
72649;SDS011;61467;50.674;4.618;2023-03-01T04:38:10;15.10;;;8.20;;
72649;SDS011;61467;50.674;4.618;2023-03-01T04:40:37;13.10;;;7.97;;
72649;SDS011;61467;50.674;4.618;2023-03-01T04:43:09;14.35;;;8.27;;
72649;SDS011;61467;50.674;4.618;2023-03-01T04:45:36;14.32;;;8.00;;
72649;SDS011;61467;50.674;4.618;2023-03-01T04:48:03;14.07;;;8.38;;
72649;SDS011;61467;50.674;4.618;2023-03-01T04:50:30;14.05;;;8.38;;
72649;SDS011;61467;50.674;4.618;2023-03-01T04:52:57;14.13;;;8.73;;
72649;SDS011;61467;50.674;4.618;2023-03-01T04:55:24;14.55;;;8.68;;
72649;SDS011;61467;50.674;4.618;2023-03-01T04:57:52;14.63;;;7.32;;
72649;SDS011;61467;50.674;4.618;2023-03-01T05:00:21;14.50;;;8.00;;
72649;SDS011;61467;50.674;4.618;2023-03-01T05:02:50;13.10;;;8.07;;
72649;SDS011;61467;50.674;4.618;2023-03-01T05:05:20;12.77;;;7.53;;
72649;SDS011;61467;50.674;4.618;2023-03-01T05:07:50;14.32;;;8.68;;
72649;SDS011;61467;50.674;4.618;2023-03-01T05:10:18;16.33;;;8.88;;
72649;SDS011;61467;50.674;4.618;2023-03-01T05:12:45;15.65;;;8.32;;
72649;SDS011;61467;50.674;4.618;2023-03-01T05:15:12;13.18;;;7.90;;
72649;SDS011;61467;50.674;4.618;2023-03-01T05:17:40;13.20;;;8.03;;
72649;SDS011;61467;50.674;4.618;2023-03-01T05:20:08;13.40;;;7.45;;
72649;SDS011;61467;50.674;4.618;2023-03-01T05:22:36;13.68;;;7.95;;
72649;SDS011;61467;50.674;4.618;2023-03-01T05:25:03;14.00;;;7.72;;
72649;SDS011;61467;50.674;4.618;2023-03-01T05:27:30;14.00;;;7.78;;
72649;SDS011;61467;50.674;4.618;2023-03-01T05:29:57;13.77;;;7.93;;
72649;SDS011;61467;50.674;4.618;2023-03-01T05:32:24;13.40;;;8.32;;
72649;SDS011;61467;50.674;4.618;2023-03-01T05:34:52;14.02;;;7.88;;
72649;SDS011;61467;50.674;4.618;2023-03-01T05:37:20;15.75;;;8.05;;
72649;SDS011;61467;50.674;4.618;2023-03-01T05:39:46;15.52;;;8.13;;
72649;SDS011;61467;50.674;4.618;2023-03-01T05:42:15;14.67;;;7.43;;
72649;SDS011;61467;50.674;4.618;2023-03-01T05:44:42;14.07;;;7.93;;
72649;SDS011;61467;50.674;4.618;2023-03-01T05:47:09;14.77;;;8.15;;
72649;SDS011;61467;50.674;4.618;2023-03-01T05:49:36;16.38;;;8.18;;
72649;SDS011;61467;50.674;4.618;2023-03-01T05:52:04;13.30;;;7.32;;
72649;SDS011;61467;50.674;4.618;2023-03-01T05:54:31;12.93;;;8.07;;
72649;SDS011;61467;50.674;4.618;2023-03-01T05:56:58;16.10;;;8.35;;
72649;SDS011;61467;50.674;4.618;2023-03-01T05:59:25;13.50;;;8.05;;
72649;SDS011;61467;50.674;4.618;2023-03-01T06:01:51;15.63;;;8.05;;
72649;SDS011;61467;50.674;4.618;2023-03-01T06:04:18;15.20;;;8.48;;
72649;SDS011;61467;50.674;4.618;2023-03-01T06:06:46;13.57;;;8.10;;
72649;SDS011;61467;50.674;4.618;2023-03-01T06:09:14;16.05;;;8.95;;
72649;SDS011;61467;50.674;4.618;2023-03-01T06:11:41;13.85;;;8.40;;
72649;SDS011;61467;50.674;4.618;2023-03-01T06:14:07;14.48;;;8.77;;
72649;SDS011;61467;50.674;4.618;2023-03-01T06:16:35;13.40;;;8.10;;
72649;SDS011;61467;50.674;4.618;2023-03-01T06:19:02;14.90;;;8.17;;
72649;SDS011;61467;50.674;4.618;2023-03-01T06:21:29;14.35;;;9.07;;
72649;SDS011;61467;50.674;4.618;2023-03-01T06:23:55;16.10;;;8.52;;
72649;SDS011;61467;50.674;4.618;2023-03-01T06:26:24;15.57;;;9.40;;
72649;SDS011;61467;50.674;4.618;2023-03-01T06:28:51;14.68;;;8.75;;
72649;SDS011;61467;50.674;4.618;2023-03-01T06:31:17;14.00;;;9.07;;
72649;SDS011;61467;50.674;4.618;2023-03-01T06:33:44;16.45;;;8.90;;
72649;SDS011;61467;50.674;4.618;2023-03-01T06:36:11;17.02;;;9.23;;
72649;SDS011;61467;50.674;4.618;2023-03-01T06:38:38;15.52;;;8.75;;
72649;SDS011;61467;50.674;4.618;2023-03-01T06:41:05;13.43;;;8.65;;
72649;SDS011;61467;50.674;4.618;2023-03-01T06:43:34;14.30;;;8.47;;
72649;SDS011;61467;50.674;4.618;2023-03-01T06:46:03;14.25;;;8.35;;
72649;SDS011;61467;50.674;4.618;2023-03-01T06:48:31;17.55;;;8.48;;
72649;SDS011;61467;50.674;4.618;2023-03-01T06:50:58;15.60;;;8.90;;
72649;SDS011;61467;50.674;4.618;2023-03-01T06:53:26;17.50;;;8.98;;
72649;SDS011;61467;50.674;4.618;2023-03-01T06:55:55;14.90;;;9.30;;
72649;SDS011;61467;50.674;4.618;2023-03-01T06:58:22;15.70;;;9.00;;
72649;SDS011;61467;50.674;4.618;2023-03-01T07:00:50;16.40;;;8.93;;
72649;SDS011;61467;50.674;4.618;2023-03-01T07:03:18;16.15;;;9.55;;
72649;SDS011;61467;50.674;4.618;2023-03-01T07:05:45;17.45;;;8.90;;
72649;SDS011;61467;50.674;4.618;2023-03-01T07:08:14;13.87;;;8.67;;
72649;SDS011;61467;50.674;4.618;2023-03-01T07:10:41;13.20;;;8.23;;
72649;SDS011;61467;50.674;4.618;2023-03-01T07:13:08;15.70;;;8.52;;
72649;SDS011;61467;50.674;4.618;2023-03-01T07:15:35;14.77;;;8.60;;
72649;SDS011;61467;50.674;4.618;2023-03-01T07:18:03;15.15;;;9.07;;
72649;SDS011;61467;50.674;4.618;2023-03-01T07:20:30;14.80;;;8.77;;
72649;SDS011;61467;50.674;4.618;2023-03-01T07:22:57;14.60;;;8.57;;
72649;SDS011;61467;50.674;4.618;2023-03-01T07:25:24;16.27;;;9.30;;
72649;SDS011;61467;50.674;4.618;2023-03-01T07:27:51;14.43;;;8.30;;
72649;SDS011;61467;50.674;4.618;2023-03-01T07:30:18;15.85;;;9.45;;
72649;SDS011;61467;50.674;4.618;2023-03-01T07:32:45;19.53;;;9.20;;
72649;SDS011;61467;50.674;4.618;2023-03-01T07:35:14;17.30;;;9.52;;
72649;SDS011;61467;50.674;4.618;2023-03-01T07:37:41;16.15;;;9.20;;
72649;SDS011;61467;50.674;4.618;2023-03-01T07:40:08;15.20;;;8.20;;
72649;SDS011;61467;50.674;4.618;2023-03-01T07:42:35;15.18;;;8.52;;
72649;SDS011;61467;50.674;4.618;2023-03-01T07:45:02;14.97;;;8.87;;
72649;SDS011;61467;50.674;4.618;2023-03-01T07:47:30;14.32;;;8.38;;
72649;SDS011;61467;50.674;4.618;2023-03-01T07:49:57;19.50;;;9.10;;
72649;SDS011;61467;50.674;4.618;2023-03-01T07:52:25;16.08;;;8.90;;
72649;SDS011;61467;50.674;4.618;2023-03-01T07:54:52;14.82;;;8.80;;
72649;SDS011;61467;50.674;4.618;2023-03-01T07:57:19;17.80;;;8.60;;
72649;SDS011;61467;50.674;4.618;2023-03-01T07:59:46;16.50;;;9.77;;
72649;SDS011;61467;50.674;4.618;2023-03-01T08:02:12;17.05;;;9.15;;
72649;SDS011;61467;50.674;4.618;2023-03-01T08:04:40;18.27;;;8.80;;
72649;SDS011;61467;50.674;4.618;2023-03-01T08:07:07;15.48;;;9.65;;
72649;SDS011;61467;50.674;4.618;2023-03-01T08:09:35;17.33;;;8.93;;
72649;SDS011;61467;50.674;4.618;2023-03-01T08:12:02;14.88;;;9.40;;
72649;SDS011;61467;50.674;4.618;2023-03-01T08:14:30;18.77;;;9.23;;
72649;SDS011;61467;50.674;4.618;2023-03-01T08:16:57;18.85;;;10.10;;
72649;SDS011;61467;50.674;4.618;2023-03-01T08:19:24;16.38;;;8.88;;
72649;SDS011;61467;50.674;4.618;2023-03-01T08:21:53;14.27;;;9.00;;
72649;SDS011;61467;50.674;4.618;2023-03-01T08:24:20;16.63;;;9.57;;
72649;SDS011;61467;50.674;4.618;2023-03-01T08:26:49;19.25;;;10.00;;
72649;SDS011;61467;50.674;4.618;2023-03-01T08:29:16;21.25;;;9.85;;
72649;SDS011;61467;50.674;4.618;2023-03-01T08:31:43;17.88;;;9.38;;
72649;SDS011;61467;50.674;4.618;2023-03-01T08:34:10;17.57;;;10.30;;
72649;SDS011;61467;50.674;4.618;2023-03-01T08:36:38;16.45;;;9.05;;
72649;SDS011;61467;50.674;4.618;2023-03-01T08:39:07;17.38;;;9.35;;
72649;SDS011;61467;50.674;4.618;2023-03-01T08:41:35;21.08;;;8.80;;
72649;SDS011;61467;50.674;4.618;2023-03-01T08:44:04;18.15;;;9.85;;
72649;SDS011;61467;50.674;4.618;2023-03-01T08:46:32;19.27;;;9.20;;
72649;SDS011;61467;50.674;4.618;2023-03-01T08:49:03;16.08;;;9.32;;
72649;SDS011;61467;50.674;4.618;2023-03-01T08:51:30;15.80;;;8.88;;
72649;SDS011;61467;50.674;4.618;2023-03-01T08:53:57;15.55;;;8.50;;
72649;SDS011;61467;50.674;4.618;2023-03-01T08:56:24;16.02;;;9.18;;
72649;SDS011;61467;50.674;4.618;2023-03-01T08:58:51;18.80;;;9.10;;
72649;SDS011;61467;50.674;4.618;2023-03-01T09:01:20;18.17;;;9.20;;
72649;SDS011;61467;50.674;4.618;2023-03-01T09:03:47;16.85;;;9.23;;
72649;SDS011;61467;50.674;4.618;2023-03-01T09:06:14;17.55;;;9.02;;
72649;SDS011;61467;50.674;4.618;2023-03-01T09:08:42;17.38;;;9.82;;
72649;SDS011;61467;50.674;4.618;2023-03-01T09:11:10;15.90;;;9.00;;
72649;SDS011;61467;50.674;4.618;2023-03-01T09:13:40;16.88;;;9.48;;
72649;SDS011;61467;50.674;4.618;2023-03-01T09:16:07;15.60;;;9.05;;
72649;SDS011;61467;50.674;4.618;2023-03-01T09:18:36;16.65;;;9.15;;
72649;SDS011;61467;50.674;4.618;2023-03-01T09:21:03;17.27;;;9.10;;
72649;SDS011;61467;50.674;4.618;2023-03-01T09:23:32;19.03;;;9.63;;
72649;SDS011;61467;50.674;4.618;2023-03-01T09:25:59;17.05;;;8.75;;
72649;SDS011;61467;50.674;4.618;2023-03-01T09:28:26;17.45;;;9.85;;
72649;SDS011;61467;50.674;4.618;2023-03-01T09:30:53;16.08;;;9.65;;
72649;SDS011;61467;50.674;4.618;2023-03-01T09:33:20;16.67;;;9.48;;
72649;SDS011;61467;50.674;4.618;2023-03-01T09:35:48;20.00;;;10.13;;
72649;SDS011;61467;50.674;4.618;2023-03-01T09:38:15;17.13;;;9.27;;
72649;SDS011;61467;50.674;4.618;2023-03-01T09:40:42;15.52;;;8.73;;
72649;SDS011;61467;50.674;4.618;2023-03-01T09:43:15;19.30;;;9.88;;
72649;SDS011;61467;50.674;4.618;2023-03-01T09:45:47;18.00;;;9.55;;
72649;SDS011;61467;50.674;4.618;2023-03-01T09:48:18;16.00;;;9.37;;
72649;SDS011;61467;50.674;4.618;2023-03-01T09:50:50;16.02;;;9.15;;
72649;SDS011;61467;50.674;4.618;2023-03-01T09:53:18;16.17;;;8.65;;
72649;SDS011;61467;50.674;4.618;2023-03-01T09:55:48;14.98;;;8.63;;
72649;SDS011;61467;50.674;4.618;2023-03-01T09:58:41;20.38;;;9.30;;
72649;SDS011;61467;50.674;4.618;2023-03-01T10:01:26;16.77;;;9.07;;
72649;SDS011;61467;50.674;4.618;2023-03-01T10:07:05;19.02;;;9.60;;
72649;SDS011;61467;50.674;4.618;2023-03-01T10:09:43;17.30;;;9.38;;
72649;SDS011;61467;50.674;4.618;2023-03-01T10:12:12;17.85;;;9.57;;
72649;SDS011;61467;50.674;4.618;2023-03-01T10:14:43;14.33;;;7.97;;
72649;SDS011;61467;50.674;4.618;2023-03-01T10:17:17;18.90;;;9.13;;
72649;SDS011;61467;50.674;4.618;2023-03-01T10:19:52;18.77;;;9.60;;
72649;SDS011;61467;50.674;4.618;2023-03-01T10:22:20;20.92;;;9.10;;
72649;SDS011;61467;50.674;4.618;2023-03-01T10:24:51;17.48;;;8.13;;
72649;SDS011;61467;50.674;4.618;2023-03-01T10:27:19;18.10;;;9.37;;
72649;SDS011;61467;50.674;4.618;2023-03-01T10:29:49;19.05;;;9.57;;
72649;SDS011;61467;50.674;4.618;2023-03-01T10:32:24;16.95;;;8.93;;
72649;SDS011;61467;50.674;4.618;2023-03-01T10:34:52;18.13;;;9.52;;
72649;SDS011;61467;50.674;4.618;2023-03-01T10:37:20;20.48;;;9.80;;
72649;SDS011;61467;50.674;4.618;2023-03-01T10:39:56;19.80;;;8.73;;
72649;SDS011;61467;50.674;4.618;2023-03-01T10:42:28;18.15;;;8.95;;
72649;SDS011;61467;50.674;4.618;2023-03-01T10:44:56;16.50;;;9.27;;
72649;SDS011;61467;50.674;4.618;2023-03-01T10:47:24;17.50;;;8.88;;
72649;SDS011;61467;50.674;4.618;2023-03-01T10:49:57;15.98;;;8.52;;
72649;SDS011;61467;50.674;4.618;2023-03-01T10:52:31;16.10;;;9.17;;
72649;SDS011;61467;50.674;4.618;2023-03-01T10:55:03;16.13;;;9.05;;
72649;SDS011;61467;50.674;4.618;2023-03-01T10:57:49;17.15;;;8.25;;
72649;SDS011;61467;50.674;4.618;2023-03-01T11:00:18;15.48;;;8.00;;
72649;SDS011;61467;50.674;4.618;2023-03-01T11:02:48;18.65;;;9.07;;
72649;SDS011;61467;50.674;4.618;2023-03-01T11:05:18;16.33;;;8.80;;
72649;SDS011;61467;50.674;4.618;2023-03-01T11:07:50;15.55;;;8.35;;
72649;SDS011;61467;50.674;4.618;2023-03-01T11:10:19;18.77;;;9.90;;
72649;SDS011;61467;50.674;4.618;2023-03-01T11:12:48;16.83;;;8.75;;
72649;SDS011;61467;50.674;4.618;2023-03-01T11:15:20;18.15;;;7.60;;
72649;SDS011;61467;50.674;4.618;2023-03-01T11:17:50;19.27;;;8.87;;
72649;SDS011;61467;50.674;4.618;2023-03-01T11:20:19;16.17;;;8.23;;
72649;SDS011;61467;50.674;4.618;2023-03-01T11:22:53;16.75;;;9.05;;
72649;SDS011;61467;50.674;4.618;2023-03-01T11:25:23;16.08;;;8.25;;
72649;SDS011;61467;50.674;4.618;2023-03-01T11:27:51;16.13;;;9.13;;
72649;SDS011;61467;50.674;4.618;2023-03-01T11:30:20;17.13;;;8.40;;
72649;SDS011;61467;50.674;4.618;2023-03-01T11:32:50;16.77;;;8.68;;
72649;SDS011;61467;50.674;4.618;2023-03-01T11:35:25;16.02;;;8.98;;
72649;SDS011;61467;50.674;4.618;2023-03-01T11:38:02;15.65;;;8.73;;
72649;SDS011;61467;50.674;4.618;2023-03-01T11:40:39;17.02;;;8.35;;
72649;SDS011;61467;50.674;4.618;2023-03-01T11:43:12;16.23;;;8.20;;
72649;SDS011;61467;50.674;4.618;2023-03-01T11:45:57;16.65;;;8.57;;
72649;SDS011;61467;50.674;4.618;2023-03-01T11:48:47;17.38;;;8.77;;
72649;SDS011;61467;50.674;4.618;2023-03-01T11:51:27;18.60;;;8.93;;
72649;SDS011;61467;50.674;4.618;2023-03-01T11:54:09;16.58;;;8.30;;
72649;SDS011;61467;50.674;4.618;2023-03-01T11:56:45;15.30;;;7.87;;
72649;SDS011;61467;50.674;4.618;2023-03-01T12:05:46;18.08;;;8.82;;
72649;SDS011;61467;50.674;4.618;2023-03-01T12:08:24;15.88;;;7.95;;
72649;SDS011;61467;50.674;4.618;2023-03-01T12:11:00;17.73;;;8.53;;
72649;SDS011;61467;50.674;4.618;2023-03-01T12:13:42;15.98;;;8.57;;
72649;SDS011;61467;50.674;4.618;2023-03-01T12:16:23;19.52;;;8.30;;
72649;SDS011;61467;50.674;4.618;2023-03-01T12:22:09;17.60;;;7.85;;
72649;SDS011;61467;50.674;4.618;2023-03-01T12:24:47;13.83;;;7.67;;
72649;SDS011;61467;50.674;4.618;2023-03-01T12:27:33;15.88;;;8.65;;
72649;SDS011;61467;50.674;4.618;2023-03-01T12:30:23;15.35;;;8.05;;
72649;SDS011;61467;50.674;4.618;2023-03-01T12:33:12;15.82;;;8.10;;
72649;SDS011;61467;50.674;4.618;2023-03-01T12:36:02;13.68;;;7.82;;
72649;SDS011;61467;50.674;4.618;2023-03-01T12:38:46;16.20;;;8.73;;
72649;SDS011;61467;50.674;4.618;2023-03-01T12:41:21;16.02;;;7.40;;
72649;SDS011;61467;50.674;4.618;2023-03-01T12:44:03;14.85;;;8.18;;
72649;SDS011;61467;50.674;4.618;2023-03-01T12:46:41;15.82;;;8.05;;
72649;SDS011;61467;50.674;4.618;2023-03-01T12:49:19;15.13;;;7.57;;
72649;SDS011;61467;50.674;4.618;2023-03-01T12:51:51;12.70;;;8.13;;
72649;SDS011;61467;50.674;4.618;2023-03-01T12:54:26;15.45;;;7.97;;
72649;SDS011;61467;50.674;4.618;2023-03-01T12:56:56;13.25;;;7.65;;
72649;SDS011;61467;50.674;4.618;2023-03-01T12:59:28;13.45;;;7.30;;
72649;SDS011;61467;50.674;4.618;2023-03-01T13:02:03;13.02;;;7.53;;
72649;SDS011;61467;50.674;4.618;2023-03-01T13:04:45;14.10;;;7.33;;
72649;SDS011;61467;50.674;4.618;2023-03-01T13:07:29;15.95;;;7.80;;
72649;SDS011;61467;50.674;4.618;2023-03-01T13:10:09;16.65;;;8.60;;
72649;SDS011;61467;50.674;4.618;2023-03-01T13:12:45;15.10;;;8.32;;
72649;SDS011;61467;50.674;4.618;2023-03-01T13:15:27;17.60;;;8.50;;
72649;SDS011;61467;50.674;4.618;2023-03-01T13:17:59;16.57;;;8.43;;
72649;SDS011;61467;50.674;4.618;2023-03-01T13:20:29;14.80;;;8.02;;
72649;SDS011;61467;50.674;4.618;2023-03-01T13:23:04;16.83;;;9.27;;
72649;SDS011;61467;50.674;4.618;2023-03-01T13:25:35;15.93;;;9.07;;
72649;SDS011;61467;50.674;4.618;2023-03-01T13:34:47;17.20;;;10.68;;
72649;SDS011;61467;50.674;4.618;2023-03-01T13:37:23;19.77;;;10.77;;
72649;SDS011;61467;50.674;4.618;2023-03-01T13:39:54;17.75;;;9.98;;
72649;SDS011;61467;50.674;4.618;2023-03-01T13:42:38;17.63;;;9.98;;
72649;SDS011;61467;50.674;4.618;2023-03-01T13:45:21;19.93;;;10.67;;
72649;SDS011;61467;50.674;4.618;2023-03-01T13:47:54;20.27;;;11.27;;
72649;SDS011;61467;50.674;4.618;2023-03-01T13:50:24;18.02;;;10.85;;
72649;SDS011;61467;50.674;4.618;2023-03-01T13:52:56;18.85;;;10.32;;
72649;SDS011;61467;50.674;4.618;2023-03-01T13:55:27;20.60;;;11.43;;
72649;SDS011;61467;50.674;4.618;2023-03-01T13:58:03;15.77;;;8.97;;
72649;SDS011;61467;50.674;4.618;2023-03-01T14:00:39;17.08;;;8.73;;
72649;SDS011;61467;50.674;4.618;2023-03-01T14:03:11;16.40;;;8.27;;
72649;SDS011;61467;50.674;4.618;2023-03-01T14:05:40;14.13;;;7.85;;
72649;SDS011;61467;50.674;4.618;2023-03-01T14:08:18;17.38;;;7.45;;
72649;SDS011;61467;50.674;4.618;2023-03-01T14:10:57;16.03;;;7.30;;
72649;SDS011;61467;50.674;4.618;2023-03-01T14:13:44;15.80;;;7.60;;
72649;SDS011;61467;50.674;4.618;2023-03-01T14:16:32;14.48;;;7.05;;
72649;SDS011;61467;50.674;4.618;2023-03-01T14:19:08;15.43;;;7.55;;
72649;SDS011;61467;50.674;4.618;2023-03-01T14:21:42;17.73;;;7.03;;
72649;SDS011;61467;50.674;4.618;2023-03-01T14:24:15;11.90;;;7.00;;
72649;SDS011;61467;50.674;4.618;2023-03-01T14:26:44;13.30;;;6.82;;
72649;SDS011;61467;50.674;4.618;2023-03-01T14:29:24;12.93;;;7.18;;
72649;SDS011;61467;50.674;4.618;2023-03-01T14:31:52;12.70;;;7.47;;
72649;SDS011;61467;50.674;4.618;2023-03-01T14:34:20;15.90;;;7.63;;
72649;SDS011;61467;50.674;4.618;2023-03-01T14:36:48;13.87;;;6.63;;
72649;SDS011;61467;50.674;4.618;2023-03-01T14:39:16;13.48;;;6.47;;
72649;SDS011;61467;50.674;4.618;2023-03-01T14:41:45;14.23;;;7.13;;
72649;SDS011;61467;50.674;4.618;2023-03-01T14:44:14;13.63;;;7.15;;
72649;SDS011;61467;50.674;4.618;2023-03-01T14:46:51;15.98;;;7.30;;
72649;SDS011;61467;50.674;4.618;2023-03-01T14:49:20;14.93;;;7.47;;
72649;SDS011;61467;50.674;4.618;2023-03-01T14:51:51;12.57;;;7.05;;
72649;SDS011;61467;50.674;4.618;2023-03-01T14:54:22;13.50;;;7.00;;
72649;SDS011;61467;50.674;4.618;2023-03-01T14:56:52;12.93;;;6.55;;
72649;SDS011;61467;50.674;4.618;2023-03-01T14:59:21;15.43;;;7.55;;
72649;SDS011;61467;50.674;4.618;2023-03-01T15:01:51;14.03;;;7.30;;
72649;SDS011;61467;50.674;4.618;2023-03-01T15:04:20;14.02;;;7.38;;
72649;SDS011;61467;50.674;4.618;2023-03-01T15:06:50;13.95;;;6.78;;
72649;SDS011;61467;50.674;4.618;2023-03-01T15:09:19;15.05;;;7.10;;
72649;SDS011;61467;50.674;4.618;2023-03-01T15:11:47;12.75;;;7.20;;